createdAt,value
2022-11-14T00:00:47.610Z,20.27
2022-11-14T00:03:32.883Z,20.77
2022-11-14T00:06:18.222Z,20.23
2022-11-14T00:09:03.781Z,20.03
2022-11-14T00:11:49.188Z,19.43
2022-11-14T00:14:34.412Z,19.93
2022-11-14T00:17:19.750Z,19.00
2022-11-14T00:20:07.403Z,18.90
2022-11-14T00:22:52.777Z,18.60
2022-11-14T00:25:38.247Z,20.00
2022-11-14T00:28:23.363Z,20.43
2022-11-14T00:31:10.388Z,19.00
2022-11-14T00:33:55.890Z,17.67
2022-11-14T00:36:40.945Z,19.50
2022-11-14T00:39:26.176Z,20.00
2022-11-14T00:42:11.557Z,18.47
2022-11-14T00:44:57.114Z,18.10
2022-11-14T00:47:42.254Z,17.33
2022-11-14T00:50:27.646Z,17.13
2022-11-14T00:53:12.953Z,17.57
2022-11-14T00:55:58.090Z,17.30
2022-11-14T00:58:43.261Z,17.50
2022-11-14T01:01:28.501Z,17.60
2022-11-14T01:04:14.110Z,16.23
2022-11-14T01:06:59.654Z,17.60
2022-11-14T01:09:45.337Z,18.20
2022-11-14T01:12:30.526Z,16.77
2022-11-14T01:15:16.260Z,17.13
2022-11-14T01:18:02.280Z,16.97
2022-11-14T01:20:49.110Z,16.57
2022-11-14T01:23:34.562Z,16.20
2022-11-14T01:26:20.057Z,16.27
2022-11-14T01:29:05.284Z,17.47
2022-11-14T01:31:50.790Z,15.43
2022-11-14T01:34:35.959Z,17.63
2022-11-14T01:37:21.884Z,17.17
2022-11-14T01:40:07.895Z,17.93
2022-11-14T01:43:24.998Z,16.97
2022-11-14T01:46:15.972Z,16.60
2022-11-14T01:49:24.514Z,17.43
2022-11-14T01:52:30.577Z,17.60
2022-11-14T01:55:15.844Z,18.10
2022-11-14T01:58:00.986Z,18.00
2022-11-14T02:00:46.038Z,18.57
2022-11-14T02:03:31.753Z,17.80
2022-11-14T02:06:20.220Z,17.33
2022-11-14T02:09:07.139Z,17.97
2022-11-14T02:11:55.199Z,17.60
2022-11-14T02:14:45.181Z,16.63
2022-11-14T02:17:31.240Z,17.27
2022-11-14T02:20:28.750Z,16.73
2022-11-14T02:23:14.880Z,16.73
2022-11-14T02:26:00.361Z,16.70
2022-11-14T02:28:46.955Z,17.03
2022-11-14T02:31:32.211Z,16.53
2022-11-14T02:34:19.950Z,15.60
2022-11-14T02:37:06.288Z,13.70
2022-11-14T02:39:51.725Z,12.50
2022-11-14T02:42:36.949Z,12.97
2022-11-14T02:45:22.505Z,10.63
2022-11-14T02:48:07.806Z,10.97
2022-11-14T02:50:53.000Z,12.10
2022-11-14T02:53:38.239Z,11.90
2022-11-14T02:56:23.856Z,12.23
2022-11-14T02:59:09.301Z,12.30
2022-11-14T03:01:54.607Z,12.83
2022-11-14T03:04:40.021Z,12.30
2022-11-14T03:07:25.528Z,13.07
2022-11-14T03:10:11.195Z,12.00
2022-11-14T03:12:56.792Z,11.50
2022-11-14T03:15:42.459Z,12.27
2022-11-14T03:18:28.606Z,12.33
2022-11-14T03:21:17.646Z,11.07
2022-11-14T03:24:03.271Z,11.17
2022-11-14T03:26:48.629Z,10.87
2022-11-14T03:29:33.899Z,11.63
2022-11-14T03:32:19.264Z,10.67
2022-11-14T03:35:04.730Z,10.97
2022-11-14T03:37:53.854Z,11.67
2022-11-14T03:40:41.244Z,12.03
2022-11-14T03:43:30.084Z,14.40
2022-11-14T03:46:17.954Z,12.40
2022-11-14T03:49:06.504Z,12.77
2022-11-14T03:51:51.729Z,12.73
2022-11-14T03:54:36.972Z,12.20
2022-11-14T03:57:22.329Z,12.40
2022-11-14T04:00:09.435Z,12.47
2022-11-14T04:02:55.971Z,11.83
2022-11-14T04:05:45.038Z,11.63
2022-11-14T04:08:30.544Z,12.17
2022-11-14T04:11:16.160Z,12.07
2022-11-14T04:14:01.790Z,11.67
2022-11-14T04:16:47.188Z,11.90
2022-11-14T04:19:32.626Z,12.70
2022-11-14T04:22:18.083Z,12.43
2022-11-14T04:25:04.174Z,12.77
2022-11-14T04:27:49.454Z,12.63
2022-11-14T04:30:35.020Z,12.60
2022-11-14T04:33:20.748Z,13.57
2022-11-14T04:36:06.111Z,13.97
2022-11-14T04:38:51.174Z,13.27
2022-11-14T04:41:36.663Z,13.10
2022-11-14T04:44:21.981Z,12.20
2022-11-14T04:47:10.310Z,13.07
2022-11-14T04:49:55.758Z,13.10
2022-11-14T04:52:41.032Z,12.87
2022-11-14T04:55:26.262Z,13.13
2022-11-14T04:58:11.596Z,13.37
2022-11-14T05:01:00.223Z,12.33
2022-11-14T05:03:48.465Z,12.97
2022-11-14T05:06:33.646Z,13.87
2022-11-14T05:09:19.195Z,12.83
2022-11-14T05:12:04.706Z,14.00
2022-11-14T05:14:50.065Z,13.73
2022-11-14T05:17:35.243Z,13.57
2022-11-14T05:20:20.523Z,13.67
2022-11-14T05:23:06.064Z,13.57
2022-11-14T05:26:02.246Z,12.80
2022-11-14T05:28:47.600Z,12.80
2022-11-14T05:31:32.925Z,13.07
2022-11-14T05:34:17.974Z,13.60
2022-11-14T05:37:06.360Z,12.40
2022-11-14T05:39:51.611Z,12.87
2022-11-14T05:42:36.682Z,13.30
2022-11-14T05:45:22.114Z,12.87
2022-11-14T05:48:07.260Z,12.93
2022-11-14T05:50:56.184Z,13.37
2022-11-14T05:53:41.870Z,13.50
2022-11-14T05:56:27.831Z,13.37
2022-11-14T05:59:13.499Z,13.47
2022-11-14T06:01:58.756Z,13.23
2022-11-14T06:04:44.445Z,13.97
2022-11-14T06:07:29.581Z,13.97
2022-11-14T06:10:15.153Z,13.87
2022-11-14T06:13:00.278Z,14.37
2022-11-14T06:15:46.260Z,14.93
2022-11-14T06:18:32.846Z,14.47
2022-11-14T06:21:20.234Z,14.93
2022-11-14T06:24:05.731Z,14.07
2022-11-14T06:26:51.111Z,15.00
2022-11-14T06:29:36.584Z,15.47
2022-11-14T06:32:21.961Z,15.77
2022-11-14T06:35:08.465Z,15.97
2022-11-14T06:37:54.055Z,15.47
2022-11-14T06:40:39.372Z,14.90
2022-11-14T06:43:24.481Z,16.07
2022-11-14T06:46:12.156Z,15.60
2022-11-14T06:48:57.419Z,15.93
2022-11-14T06:51:42.660Z,16.30
2022-11-14T06:54:27.778Z,16.50
2022-11-14T06:57:12.835Z,17.23
2022-11-14T06:59:58.229Z,16.53
2022-11-14T07:02:46.110Z,16.57
2022-11-14T07:05:31.128Z,16.60
2022-11-14T07:08:20.851Z,16.83
2022-11-14T07:11:11.894Z,17.07
2022-11-14T07:14:00.446Z,17.20
2022-11-14T07:16:46.866Z,17.20
2022-11-14T07:19:32.211Z,17.23
2022-11-14T07:22:17.643Z,17.00
2022-11-14T07:25:02.973Z,17.00
2022-11-14T07:27:48.505Z,17.93
2022-11-14T07:30:34.410Z,17.30
2022-11-14T07:33:19.668Z,21.37
2022-11-14T07:36:05.475Z,18.40
2022-11-14T07:38:50.999Z,18.00
2022-11-14T07:41:36.615Z,18.73
2022-11-14T07:44:21.714Z,17.60
2022-11-14T07:47:07.004Z,19.87
2022-11-14T07:49:52.202Z,19.23
2022-11-14T07:52:37.444Z,19.47
2022-11-14T07:55:23.262Z,18.17
2022-11-14T07:58:08.621Z,18.33
2022-11-14T08:00:54.204Z,18.63
2022-11-14T08:03:45.035Z,18.37
2022-11-14T08:06:31.160Z,18.67
2022-11-14T08:09:16.281Z,18.60
2022-11-14T08:12:02.160Z,18.53
2022-11-14T08:14:47.181Z,18.27
2022-11-14T08:17:32.462Z,17.50
2022-11-14T08:20:17.582Z,18.83
2022-11-14T08:23:04.799Z,18.40
2022-11-14T08:25:50.751Z,18.97
2022-11-14T08:28:36.318Z,20.00
2022-11-14T08:31:22.140Z,20.50
2022-11-14T08:34:07.336Z,18.33
2022-11-14T08:36:52.541Z,19.50
2022-11-14T08:39:37.655Z,20.30
2022-11-14T08:42:23.112Z,18.80
2022-11-14T08:45:08.852Z,20.87
2022-11-14T08:47:54.330Z,18.27
2022-11-14T08:50:39.967Z,19.03
2022-11-14T08:53:25.447Z,19.83
2022-11-14T08:56:11.597Z,18.40
2022-11-14T08:58:57.127Z,17.83
2022-11-14T09:01:42.852Z,17.53
2022-11-14T09:04:28.578Z,17.27
2022-11-14T09:07:14.458Z,17.67
2022-11-14T09:09:59.739Z,16.77
2022-11-14T09:12:45.185Z,16.90
2022-11-14T09:15:31.126Z,16.20
2022-11-14T09:18:16.668Z,16.03
2022-11-14T09:21:04.248Z,19.40
2022-11-14T09:23:49.420Z,17.17
2022-11-14T09:26:34.867Z,15.53
2022-11-14T09:29:20.630Z,15.60
2022-11-14T09:32:05.859Z,15.87
2022-11-14T09:34:52.120Z,16.27
2022-11-14T09:37:37.174Z,17.47
2022-11-14T09:40:22.417Z,16.23
2022-11-14T09:43:24.696Z,15.07
2022-11-14T09:46:19.698Z,15.23
2022-11-14T09:49:11.540Z,14.90
2022-11-14T09:52:24.615Z,14.43
2022-11-14T09:55:13.599Z,15.07
2022-11-14T09:58:00.978Z,14.53
2022-11-14T10:01:34.347Z,14.70
2022-11-14T10:04:40.863Z,14.50
2022-11-14T10:07:50.152Z,14.97
2022-11-14T10:10:51.073Z,14.60
2022-11-14T10:13:47.625Z,13.73
2022-11-14T10:16:43.151Z,13.67
2022-11-14T10:19:39.997Z,13.70
2022-11-14T10:23:00.088Z,13.57
2022-11-14T10:25:51.722Z,13.50
2022-11-14T10:28:50.648Z,14.17
2022-11-14T10:31:41.726Z,13.70
2022-11-14T10:35:00.568Z,13.47
2022-11-14T10:38:12.280Z,13.03
2022-11-14T10:41:04.798Z,12.77
2022-11-14T10:43:51.799Z,13.10
2022-11-14T10:46:42.004Z,11.57
2022-11-14T10:49:36.012Z,13.43
2022-11-14T10:52:31.184Z,12.77
2022-11-14T10:55:18.481Z,11.73
2022-11-14T10:58:10.395Z,11.97
2022-11-14T11:00:55.916Z,11.90
2022-11-14T11:03:43.030Z,12.90
2022-11-14T11:06:29.316Z,12.20
2022-11-14T11:09:46.033Z,13.53
2022-11-14T11:12:37.131Z,14.03
2022-11-14T11:15:27.924Z,12.93
2022-11-14T11:18:32.368Z,13.77
2022-11-14T11:21:20.662Z,11.30
2022-11-14T11:24:06.401Z,11.77
2022-11-14T11:27:14.434Z,13.57
2022-11-14T11:30:19.883Z,11.87
2022-11-14T11:33:29.999Z,11.80
2022-11-14T11:36:18.826Z,11.47
2022-11-14T11:39:04.381Z,11.57
2022-11-14T11:45:00.302Z,11.47
2022-11-14T11:47:53.935Z,12.10
2022-11-14T11:50:40.276Z,14.03
2022-11-14T11:53:58.364Z,12.70
2022-11-14T11:56:47.812Z,11.67
2022-11-14T11:59:45.570Z,11.53
2022-11-14T12:02:31.498Z,11.70
2022-11-14T12:05:33.181Z,16.87
2022-11-14T12:08:47.805Z,13.83
2022-11-14T12:11:37.406Z,24.43
2022-11-14T12:15:12.398Z,18.43
2022-11-14T12:18:16.237Z,82.10
2022-11-14T12:21:07.103Z,29.60
2022-11-14T12:23:58.389Z,14.60
2022-11-14T12:26:58.916Z,40.03
2022-11-14T12:30:14.143Z,15.13
2022-11-14T12:33:22.581Z,13.40
2022-11-14T12:36:12.813Z,15.97
2022-11-14T12:38:59.610Z,11.60
2022-11-14T12:41:45.135Z,11.17
2022-11-14T12:44:30.688Z,11.73
2022-11-14T12:47:24.305Z,11.43
2022-11-14T12:50:40.287Z,11.43
2022-11-14T12:53:37.145Z,9.23
2022-11-14T12:56:31.186Z,10.37
2022-11-14T12:59:26.446Z,9.73
2022-11-14T13:02:43.974Z,10.57
2022-11-14T13:06:17.451Z,8.23
2022-11-14T13:09:21.219Z,5.90
2022-11-14T13:12:45.580Z,5.67
2022-11-14T13:16:07.075Z,5.00
2022-11-14T13:19:12.199Z,4.53
2022-11-14T13:22:35.359Z,4.83
2022-11-14T13:25:22.658Z,4.73
2022-11-14T13:28:38.803Z,4.37
2022-11-14T13:31:41.983Z,4.60
2022-11-14T13:34:49.312Z,4.27
2022-11-14T13:37:46.485Z,3.93
2022-11-14T13:40:44.896Z,5.17
2022-11-14T13:44:12.042Z,4.20
2022-11-14T13:47:27.871Z,5.37
2022-11-14T13:50:18.802Z,6.10
2022-11-14T13:53:14.480Z,5.00
2022-11-14T13:56:07.032Z,4.80
2022-11-14T13:59:16.625Z,5.53
2022-11-14T14:02:08.308Z,5.40
2022-11-14T14:05:19.253Z,5.80
2022-11-14T14:08:16.639Z,5.00
2022-11-14T14:11:20.829Z,5.60
2022-11-14T14:14:18.220Z,5.90
2022-11-14T14:17:21.721Z,6.30
2022-11-14T14:20:39.768Z,6.20
2022-11-14T14:23:56.309Z,5.70
2022-11-14T14:27:16.498Z,6.40
2022-11-14T14:30:15.562Z,6.60
2022-11-14T14:33:11.599Z,6.13
2022-11-14T14:35:57.202Z,6.10
2022-11-14T14:38:42.551Z,6.40
2022-11-14T14:41:31.977Z,6.13
2022-11-14T14:44:25.365Z,6.60
2022-11-14T14:47:28.939Z,6.80
2022-11-14T14:50:49.084Z,6.40
2022-11-14T14:53:35.873Z,7.40
2022-11-14T14:56:24.901Z,7.23
2022-11-14T14:59:18.240Z,6.87
2022-11-14T15:02:08.504Z,6.77
2022-11-14T15:04:55.351Z,6.37
2022-11-14T15:07:40.832Z,6.90
2022-11-14T15:10:30.150Z,6.47
2022-11-14T15:13:18.045Z,7.77
2022-11-14T15:16:05.454Z,7.13
2022-11-14T15:18:52.328Z,7.50
2022-11-14T15:21:37.482Z,8.43
2022-11-14T15:24:23.944Z,8.57
2022-11-14T15:27:15.117Z,8.20
2022-11-14T15:30:06.865Z,9.90
2022-11-14T15:32:54.948Z,9.23
2022-11-14T15:35:40.692Z,8.67
2022-11-14T15:41:33.385Z,10.27
2022-11-14T15:44:33.081Z,10.23
2022-11-14T15:47:29.697Z,9.80
2022-11-14T15:50:14.722Z,9.03
2022-11-14T15:53:06.487Z,9.93
2022-11-14T15:55:51.627Z,11.27
2022-11-14T15:58:36.758Z,11.20
2022-11-14T16:01:28.171Z,11.10
2022-11-14T16:04:21.420Z,11.80
2022-11-14T16:07:06.726Z,12.30
2022-11-14T16:09:52.379Z,14.33
2022-11-14T16:12:37.576Z,14.33
2022-11-14T16:15:22.666Z,12.03
2022-11-14T16:18:08.062Z,13.83
2022-11-14T16:20:58.574Z,13.17
2022-11-14T16:23:44.072Z,11.50
2022-11-14T16:26:30.235Z,11.60
2022-11-14T16:29:16.232Z,11.60
2022-11-14T16:32:02.989Z,19.40
2022-11-14T16:34:48.290Z,17.30
2022-11-14T16:37:33.249Z,18.67
2022-11-14T16:40:22.901Z,16.30
2022-11-14T16:43:13.576Z,17.87
2022-11-14T16:46:03.764Z,15.17
2022-11-14T16:48:49.170Z,15.33
2022-11-14T16:51:50.853Z,15.07
2022-11-14T16:54:36.522Z,12.77
2022-11-14T16:57:22.050Z,11.93
2022-11-14T17:00:10.923Z,12.07
2022-11-14T17:02:56.726Z,14.00
2022-11-14T17:05:50.549Z,13.83
2022-11-14T17:08:36.070Z,13.47
2022-11-14T17:11:21.614Z,13.07
2022-11-14T17:14:07.012Z,14.97
2022-11-14T17:16:52.623Z,15.33
2022-11-14T17:19:45.529Z,17.33
2022-11-14T17:22:30.789Z,17.60
2022-11-14T17:25:15.962Z,20.50
2022-11-14T17:28:01.021Z,20.33
2022-11-14T17:30:46.185Z,18.47
2022-11-14T17:33:31.628Z,16.50
2022-11-14T17:36:18.066Z,17.00
2022-11-14T17:39:03.692Z,16.27
2022-11-14T17:41:49.170Z,16.33
2022-11-14T17:44:34.597Z,14.70
2022-11-14T17:47:20.623Z,12.83
2022-11-14T17:50:06.346Z,12.13
2022-11-14T17:52:51.243Z,10.43
2022-11-14T17:55:36.738Z,10.10
2022-11-14T17:58:22.154Z,10.03
2022-11-14T18:01:12.045Z,9.87
2022-11-14T18:04:01.659Z,9.63
2022-11-14T18:06:50.446Z,9.47
2022-11-14T18:09:35.586Z,10.83
2022-11-14T18:12:20.656Z,11.53
2022-11-14T18:15:06.760Z,10.17
2022-11-14T18:17:52.135Z,11.67
2022-11-14T18:20:37.956Z,10.53
2022-11-14T18:23:23.390Z,10.67
2022-11-14T18:26:13.688Z,11.40
2022-11-14T18:29:02.492Z,11.23
2022-11-14T18:31:48.275Z,10.13
2022-11-14T18:34:36.715Z,8.33
2022-11-14T18:37:22.454Z,8.73
2022-11-14T18:40:10.957Z,9.00
2022-11-14T18:43:02.418Z,8.53
2022-11-14T18:45:47.512Z,8.50
2022-11-14T18:48:33.296Z,8.60
2022-11-14T18:51:21.437Z,8.83
2022-11-14T18:54:09.252Z,9.47
2022-11-14T18:56:54.366Z,8.57
2022-11-14T18:59:39.559Z,8.63
2022-11-14T19:02:24.950Z,9.33
2022-11-14T19:05:09.913Z,9.87
2022-11-14T19:07:55.114Z,10.07
2022-11-14T19:10:40.357Z,9.03
2022-11-14T19:13:25.729Z,7.97
2022-11-14T19:16:10.818Z,8.70
2022-11-14T19:18:56.016Z,8.57
2022-11-14T19:21:41.564Z,8.00
2022-11-14T19:24:27.647Z,8.37
2022-11-14T19:27:14.709Z,8.33
2022-11-14T19:30:00.012Z,8.73
2022-11-14T19:32:46.853Z,8.40
2022-11-14T19:35:31.923Z,8.47
2022-11-14T19:38:17.317Z,9.10
2022-11-14T19:41:12.463Z,9.30
2022-11-14T19:43:59.196Z,8.67
2022-11-14T19:46:47.580Z,8.43
2022-11-14T19:49:33.251Z,8.80
2022-11-14T20:01:36.776Z,6.97
2022-11-14T20:04:22.945Z,7.93
2022-11-14T20:07:08.076Z,6.90
2022-11-14T20:09:53.287Z,7.33
2022-11-14T20:12:38.440Z,7.23
2022-11-14T20:15:24.194Z,7.10
2022-11-14T20:18:09.680Z,6.90
2022-11-14T20:20:57.890Z,6.90
2022-11-14T20:23:43.563Z,6.57
2022-11-14T20:26:28.864Z,6.37
2022-11-14T20:29:14.080Z,6.77
2022-11-14T20:31:59.471Z,6.47
2022-11-14T20:34:44.656Z,6.50
2022-11-14T20:37:29.776Z,5.90
2022-11-14T20:40:15.313Z,6.83
2022-11-14T20:43:02.502Z,6.43
2022-11-14T20:46:00.978Z,6.03
2022-11-14T20:48:47.352Z,6.53
2022-11-14T20:51:33.360Z,6.10
2022-11-14T20:54:18.966Z,6.50
2022-11-14T20:57:04.249Z,6.90
2022-11-14T20:59:49.617Z,7.20
2022-11-14T21:02:35.264Z,6.97
2022-11-14T21:05:20.373Z,6.43
2022-11-14T21:08:05.816Z,6.23
2022-11-14T21:10:58.739Z,6.33
2022-11-14T21:13:56.386Z,6.70
2022-11-14T21:16:41.582Z,6.73
2022-11-14T21:19:29.219Z,6.67
2022-11-14T21:22:15.020Z,6.67
2022-11-14T21:25:00.564Z,7.07
2022-11-14T21:27:46.162Z,6.67
2022-11-14T21:30:32.290Z,6.37
2022-11-14T21:33:17.607Z,6.73
2022-11-14T21:36:30.249Z,7.30
2022-11-14T21:39:16.339Z,7.10
2022-11-14T21:42:02.198Z,7.57
2022-11-14T21:44:47.644Z,8.00
2022-11-14T21:47:34.057Z,7.20
2022-11-14T21:50:19.203Z,7.77
2022-11-14T21:53:15.614Z,7.00
2022-11-14T21:56:19.774Z,7.00
2022-11-14T21:59:12.644Z,7.03
2022-11-14T22:02:17.237Z,7.50
2022-11-14T22:05:02.793Z,7.50
2022-11-14T22:07:47.816Z,7.63
2022-11-14T22:10:33.225Z,7.33
2022-11-14T22:13:18.751Z,6.97
2022-11-14T22:16:05.507Z,6.60
2022-11-14T22:18:56.304Z,7.00
2022-11-14T22:21:43.459Z,7.40
2022-11-14T22:24:28.581Z,6.90
2022-11-14T22:27:13.872Z,6.53
2022-11-14T22:29:58.969Z,6.77
2022-11-14T22:32:44.326Z,6.67
2022-11-14T22:35:29.663Z,7.20
2022-11-14T22:38:15.072Z,7.37
2022-11-14T22:41:01.741Z,6.80
2022-11-14T22:43:47.150Z,6.57
2022-11-14T22:46:32.669Z,6.40
2022-11-14T22:49:21.059Z,6.10
2022-11-14T22:52:06.687Z,6.30
2022-11-14T22:54:51.829Z,5.60
2022-11-14T22:57:37.297Z,5.77
2022-11-14T23:00:22.537Z,6.20
2022-11-14T23:03:07.839Z,6.13
2022-11-14T23:05:53.158Z,5.67
2022-11-14T23:08:38.937Z,6.53
2022-11-14T23:11:27.225Z,6.40
2022-11-14T23:14:14.133Z,5.87
2022-11-14T23:16:59.699Z,6.30
2022-11-14T23:19:45.242Z,5.43
2022-11-14T23:22:30.365Z,5.63
2022-11-14T23:25:15.913Z,5.30
2022-11-14T23:28:01.772Z,6.07
2022-11-14T23:30:46.902Z,4.97
2022-11-14T23:33:33.168Z,5.70
2022-11-14T23:36:18.426Z,5.77
2022-11-14T23:39:03.961Z,5.93
2022-11-14T23:41:49.084Z,5.47
2022-11-14T23:44:34.565Z,5.80
2022-11-14T23:47:19.582Z,6.03
2022-11-14T23:50:05.199Z,5.23
2022-11-14T23:52:50.566Z,5.00
2022-11-14T23:55:35.952Z,5.47
2022-11-14T23:58:23.091Z,5.90
